createdAt,value
2023-05-29T00:00:30.129Z,99.90
2023-05-29T00:02:57.319Z,99.90
2023-05-29T00:05:24.072Z,99.90
2023-05-29T00:07:52.066Z,99.90
2023-05-29T00:10:20.814Z,99.90
2023-05-29T00:12:47.593Z,99.90
2023-05-29T00:15:14.948Z,99.90
2023-05-29T00:17:41.810Z,99.90
2023-05-29T00:20:13.412Z,99.90
2023-05-29T00:22:40.960Z,99.90
2023-05-29T00:25:08.736Z,99.90
2023-05-29T00:27:36.512Z,99.90
2023-05-29T00:30:04.222Z,99.90
2023-05-29T00:32:31.489Z,99.90
2023-05-29T00:34:58.240Z,99.90
2023-05-29T00:37:25.987Z,99.90
2023-05-29T00:39:52.871Z,99.90
2023-05-29T00:42:19.583Z,99.90
2023-05-29T00:44:49.716Z,99.90
2023-05-29T00:47:18.664Z,99.90
2023-05-29T00:49:46.386Z,99.90
2023-05-29T00:52:14.159Z,99.90
2023-05-29T00:54:45.376Z,99.90
2023-05-29T00:57:14.220Z,99.90
2023-05-29T00:59:42.356Z,99.90
2023-05-29T01:02:09.573Z,99.90
2023-05-29T01:04:37.107Z,99.90
2023-05-29T01:07:05.092Z,99.90
2023-05-29T01:09:32.468Z,99.90
2023-05-29T01:12:28.340Z,99.90
2023-05-29T01:15:08.570Z,99.90
2023-05-29T01:18:02.473Z,99.90
2023-05-29T01:20:32.521Z,99.90
2023-05-29T01:23:26.844Z,99.90
2023-05-29T01:26:08.753Z,99.90
2023-05-29T01:28:54.285Z,99.90
2023-05-29T01:31:25.581Z,99.90
2023-05-29T01:34:00.950Z,99.90
2023-05-29T01:36:28.341Z,99.90
2023-05-29T01:38:58.165Z,99.90
2023-05-29T01:41:26.675Z,99.90
2023-05-29T01:43:55.959Z,99.90
2023-05-29T01:46:24.422Z,99.90
2023-05-29T01:48:51.349Z,99.90
2023-05-29T01:51:18.819Z,99.90
2023-05-29T01:53:45.641Z,99.90
2023-05-29T01:56:13.432Z,99.90
2023-05-29T01:58:42.234Z,99.90
2023-05-29T02:01:09.291Z,99.90
2023-05-29T02:03:36.462Z,99.90
2023-05-29T02:06:04.008Z,99.90
2023-05-29T02:08:30.992Z,99.90
2023-05-29T02:11:00.923Z,99.90
2023-05-29T02:13:29.305Z,99.90
2023-05-29T02:15:56.682Z,99.90
2023-05-29T02:18:23.555Z,99.90
2023-05-29T02:20:50.693Z,99.90
2023-05-29T02:23:18.130Z,99.90
2023-05-29T02:25:44.940Z,99.90
2023-05-29T02:28:22.105Z,99.90
2023-05-29T02:30:48.839Z,99.90
2023-05-29T02:33:16.671Z,99.90
2023-05-29T02:35:43.783Z,99.90
2023-05-29T02:38:10.567Z,99.90
2023-05-29T02:40:37.919Z,99.90
2023-05-29T02:43:06.716Z,99.90
2023-05-29T02:45:33.481Z,99.90
2023-05-29T02:48:00.617Z,99.90
2023-05-29T02:50:28.152Z,99.90
2023-05-29T02:52:54.941Z,99.90
2023-05-29T02:55:23.323Z,99.90
2023-05-29T02:57:54.644Z,99.90
2023-05-29T03:00:21.849Z,99.90
2023-05-29T03:02:49.174Z,99.90
2023-05-29T03:05:17.921Z,99.90
2023-05-29T03:07:45.049Z,99.90
2023-05-29T03:10:11.844Z,99.90
2023-05-29T03:12:39.150Z,99.90
2023-05-29T03:15:06.575Z,99.90
2023-05-29T03:17:33.418Z,99.90
2023-05-29T03:20:00.622Z,99.90
2023-05-29T03:22:27.667Z,99.90
2023-05-29T03:24:54.822Z,99.90
2023-05-29T03:27:22.063Z,99.90
2023-05-29T03:29:48.804Z,99.90
2023-05-29T03:32:15.685Z,99.90
2023-05-29T03:34:43.496Z,99.90
2023-05-29T03:37:10.296Z,99.90
2023-05-29T03:39:37.042Z,99.90
2023-05-29T03:42:04.686Z,99.90
2023-05-29T03:44:31.434Z,99.90
2023-05-29T03:46:58.684Z,99.90
2023-05-29T03:49:25.541Z,99.90
2023-05-29T03:51:52.365Z,99.90
2023-05-29T03:54:19.433Z,99.90
2023-05-29T03:56:46.363Z,99.90
2023-05-29T03:59:13.588Z,99.90
2023-05-29T04:01:42.824Z,99.90
2023-05-29T04:04:12.052Z,99.90
2023-05-29T04:06:39.786Z,99.90
2023-05-29T04:09:08.055Z,99.90
2023-05-29T04:11:40.137Z,99.90
2023-05-29T04:14:08.900Z,99.90
2023-05-29T04:16:35.808Z,99.90
2023-05-29T04:19:02.616Z,99.90
2023-05-29T04:21:29.613Z,99.90
2023-05-29T04:23:56.770Z,99.90
2023-05-29T04:26:26.903Z,99.90
2023-05-29T04:29:00.022Z,99.90
2023-05-29T04:31:27.454Z,99.90
2023-05-29T04:33:57.874Z,99.90
2023-05-29T04:36:29.466Z,99.90
2023-05-29T04:38:56.315Z,99.90
2023-05-29T04:41:24.946Z,99.90
2023-05-29T04:43:56.531Z,99.90
2023-05-29T04:46:27.908Z,99.90
2023-05-29T04:48:55.388Z,99.90
2023-05-29T04:51:22.533Z,99.90
2023-05-29T04:53:57.911Z,99.90
2023-05-29T04:56:26.393Z,99.90
2023-05-29T04:58:53.234Z,99.90
2023-05-29T05:01:20.087Z,99.90
2023-05-29T05:03:48.465Z,99.90
2023-05-29T05:06:18.394Z,99.90
2023-05-29T05:08:45.468Z,99.90
2023-05-29T05:11:20.746Z,99.90
2023-05-29T05:13:47.477Z,99.90
2023-05-29T05:16:14.665Z,99.90
2023-05-29T05:18:42.239Z,99.90
2023-05-29T05:21:09.440Z,99.90
2023-05-29T05:23:49.393Z,99.90
2023-05-29T05:26:24.300Z,99.90
2023-05-29T05:28:51.603Z,99.90
2023-05-29T05:31:18.833Z,99.90
2023-05-29T05:33:45.849Z,99.90
2023-05-29T05:36:12.805Z,99.90
2023-05-29T05:38:41.253Z,99.90
2023-05-29T05:41:08.499Z,99.90
2023-05-29T05:43:37.336Z,99.90
2023-05-29T05:46:04.409Z,99.90
2023-05-29T05:48:31.205Z,99.90
2023-05-29T05:50:59.936Z,99.90
2023-05-29T05:53:27.466Z,99.90
2023-05-29T05:55:54.856Z,99.90
2023-05-29T05:58:24.775Z,99.90
2023-05-29T06:00:53.657Z,99.90
2023-05-29T06:03:21.954Z,99.90
2023-05-29T06:05:49.813Z,99.90
2023-05-29T06:08:16.716Z,99.90
2023-05-29T06:10:48.606Z,99.90
2023-05-29T06:13:18.482Z,99.90
2023-05-29T06:15:45.541Z,99.90
2023-05-29T06:18:13.186Z,99.90
2023-05-29T06:20:40.025Z,99.90
2023-05-29T06:23:07.369Z,99.90
2023-05-29T06:25:34.437Z,99.90
2023-05-29T06:28:04.175Z,99.90
2023-05-29T06:30:30.968Z,99.90
2023-05-29T06:33:01.989Z,99.90
2023-05-29T06:35:28.740Z,99.90
2023-05-29T06:37:56.011Z,99.90
2023-05-29T06:40:23.140Z,99.90
2023-05-29T06:42:50.274Z,99.90
2023-05-29T06:45:17.528Z,99.90
2023-05-29T06:47:44.728Z,99.90
2023-05-29T06:50:11.769Z,99.90
2023-05-29T06:52:38.592Z,99.90
2023-05-29T06:55:06.207Z,99.90
2023-05-29T06:57:32.963Z,99.90
2023-05-29T06:59:59.710Z,99.90
2023-05-29T07:02:26.819Z,99.90
2023-05-29T07:04:54.025Z,99.90
2023-05-29T07:07:20.819Z,98.70
2023-05-29T07:09:56.233Z,93.90
2023-05-29T07:12:26.694Z,83.40
2023-05-29T07:14:53.608Z,80.40
2023-05-29T07:17:21.046Z,79.60
2023-05-29T07:19:50.431Z,78.40
2023-05-29T07:22:18.943Z,72.80
2023-05-29T07:24:47.649Z,61.70
2023-05-29T07:27:14.497Z,57.70
2023-05-29T07:29:41.676Z,57.40
2023-05-29T07:32:08.473Z,56.20
2023-05-29T07:34:37.230Z,53.20
2023-05-29T07:37:06.158Z,51.10
2023-05-29T07:39:35.955Z,49.10
2023-05-29T07:42:04.135Z,46.90
2023-05-29T07:44:31.574Z,44.70
2023-05-29T07:46:58.888Z,42.60
2023-05-29T07:49:25.943Z,43.00
2023-05-29T07:51:52.775Z,40.30
2023-05-29T07:54:22.807Z,40.70
2023-05-29T07:56:49.516Z,40.70
2023-05-29T07:59:17.074Z,43.60
2023-05-29T08:01:44.948Z,44.60
2023-05-29T08:04:13.787Z,41.90
2023-05-29T08:06:43.784Z,41.90
2023-05-29T08:09:11.241Z,41.60
2023-05-29T08:11:38.660Z,41.50
2023-05-29T08:14:05.573Z,41.40
2023-05-29T08:16:32.941Z,40.20
2023-05-29T08:18:59.691Z,39.00
2023-05-29T08:21:27.236Z,39.30
2023-05-29T08:23:54.096Z,39.10
2023-05-29T08:26:27.628Z,37.80
2023-05-29T08:28:57.425Z,37.80
2023-05-29T08:31:33.600Z,37.20
2023-05-29T08:34:02.769Z,38.00
2023-05-29T08:36:32.186Z,38.80
2023-05-29T08:38:59.421Z,39.90
2023-05-29T08:42:38.460Z,39.90
2023-05-29T08:45:02.405Z,40.30
2023-05-29T08:47:34.852Z,40.10
2023-05-29T08:50:03.243Z,39.80
2023-05-29T08:52:36.681Z,38.50
2023-05-29T08:55:05.189Z,37.90
2023-05-29T08:57:35.622Z,37.80
2023-05-29T09:00:09.305Z,37.10
2023-05-29T09:02:38.548Z,36.00
2023-05-29T09:05:07.668Z,35.70
2023-05-29T09:07:36.105Z,38.90
2023-05-29T09:10:05.779Z,38.50
2023-05-29T09:12:32.609Z,37.10
2023-05-29T09:14:59.430Z,37.80
2023-05-29T09:17:33.169Z,38.80
2023-05-29T09:20:00.586Z,39.00
2023-05-29T09:22:45.168Z,37.20
2023-05-29T09:25:12.294Z,39.10
2023-05-29T09:27:42.575Z,38.90
2023-05-29T09:30:14.125Z,39.60
2023-05-29T09:32:41.980Z,43.90
2023-05-29T09:35:11.597Z,46.10
2023-05-29T09:37:43.108Z,47.60
2023-05-29T09:40:12.871Z,47.70
2023-05-29T09:42:40.276Z,48.10
2023-05-29T09:45:08.150Z,49.20
2023-05-29T09:47:37.856Z,50.50
2023-05-29T09:50:07.474Z,50.90
2023-05-29T09:52:34.870Z,51.40
2023-05-29T09:55:01.690Z,51.50
2023-05-29T09:57:32.308Z,52.70
2023-05-29T10:00:01.660Z,52.80
2023-05-29T10:02:29.354Z,52.90
2023-05-29T10:04:56.199Z,54.00
2023-05-29T10:07:33.800Z,55.00
2023-05-29T10:10:06.086Z,53.80
2023-05-29T10:12:36.219Z,55.40
2023-05-29T10:15:04.065Z,56.20
2023-05-29T10:17:35.850Z,56.80
2023-05-29T10:20:08.650Z,57.60
2023-05-29T10:22:41.216Z,58.40
2023-05-29T10:25:11.270Z,59.10
2023-05-29T10:27:42.750Z,59.20
2023-05-29T10:30:39.352Z,58.40
2023-05-29T10:33:47.450Z,59.30
2023-05-29T10:36:17.955Z,59.30
2023-05-29T10:38:47.954Z,60.70
2023-05-29T10:41:30.612Z,60.10
2023-05-29T10:44:04.277Z,59.60
2023-05-29T10:46:52.351Z,59.50
2023-05-29T10:49:51.593Z,58.40
2023-05-29T10:52:22.062Z,59.60
2023-05-29T10:54:58.741Z,59.10
2023-05-29T10:57:28.015Z,60.10
2023-05-29T11:00:07.428Z,58.50
2023-05-29T11:02:40.329Z,58.30
2023-05-29T11:05:20.666Z,59.80
2023-05-29T11:07:56.894Z,58.70
2023-05-29T11:10:45.273Z,59.90
2023-05-29T11:13:28.241Z,61.20
2023-05-29T11:16:12.744Z,59.60
2023-05-29T11:18:47.126Z,59.80
2023-05-29T11:21:36.788Z,58.90
2023-05-29T11:24:08.107Z,59.10
2023-05-29T11:26:38.266Z,58.80
2023-05-29T11:29:07.926Z,58.40
2023-05-29T11:31:36.109Z,58.30
2023-05-29T11:34:05.798Z,59.00
2023-05-29T11:36:36.483Z,58.20
2023-05-29T11:39:06.346Z,59.70
2023-05-29T11:41:33.244Z,58.40
2023-05-29T11:44:07.223Z,59.00
2023-05-29T11:46:35.331Z,58.30
2023-05-29T11:49:02.595Z,59.00
2023-05-29T11:51:29.862Z,59.30
2023-05-29T11:53:59.997Z,59.10
2023-05-29T11:56:30.678Z,59.60
2023-05-29T11:59:00.852Z,60.20
2023-05-29T12:01:29.524Z,59.90
2023-05-29T12:03:56.467Z,59.40
2023-05-29T12:06:39.018Z,59.90
2023-05-29T12:09:06.951Z,59.70
2023-05-29T12:11:35.951Z,59.10
2023-05-29T12:14:04.504Z,58.70
2023-05-29T12:16:35.091Z,58.50
2023-05-29T12:19:02.065Z,56.60
2023-05-29T12:21:29.860Z,56.20
2023-05-29T12:24:13.634Z,57.10
2023-05-29T12:26:42.886Z,58.10
2023-05-29T12:29:13.115Z,57.10
2023-05-29T12:31:43.316Z,58.00
2023-05-29T12:34:16.600Z,58.00
2023-05-29T12:36:46.823Z,58.00
2023-05-29T12:39:16.308Z,56.00
2023-05-29T12:41:43.110Z,57.00
2023-05-29T12:44:10.296Z,58.80
2023-05-29T12:46:47.814Z,57.40
2023-05-29T12:49:16.333Z,56.80
2023-05-29T12:51:45.412Z,57.40
2023-05-29T12:54:16.569Z,56.60
2023-05-29T12:56:47.320Z,56.70
2023-05-29T12:59:14.691Z,57.20
2023-05-29T13:01:44.361Z,57.80
2023-05-29T13:04:13.951Z,57.60
2023-05-29T13:06:40.945Z,58.40
2023-05-29T13:09:09.161Z,56.10
2023-05-29T13:11:38.304Z,56.50
2023-05-29T13:14:08.612Z,56.80
2023-05-29T13:16:37.016Z,57.40
2023-05-29T13:19:03.955Z,57.20
2023-05-29T13:21:31.236Z,56.60
2023-05-29T13:24:01.853Z,57.80
2023-05-29T13:26:28.852Z,57.30
2023-05-29T13:28:58.415Z,57.80
2023-05-29T13:31:25.687Z,58.00
2023-05-29T13:33:55.545Z,57.20
2023-05-29T13:36:22.816Z,58.20
2023-05-29T13:38:49.535Z,58.20
2023-05-29T13:41:16.550Z,59.00
2023-05-29T13:43:45.143Z,59.30
2023-05-29T13:46:13.424Z,59.30
2023-05-29T13:48:41.637Z,58.40
2023-05-29T13:51:08.803Z,57.60
2023-05-29T13:53:35.848Z,57.80
2023-05-29T13:56:03.008Z,57.80
2023-05-29T13:58:29.898Z,57.90
2023-05-29T14:00:57.416Z,57.80
2023-05-29T14:03:26.614Z,57.30
2023-05-29T14:05:54.616Z,56.70
2023-05-29T14:08:21.621Z,56.90
2023-05-29T14:10:51.762Z,58.20
2023-05-29T14:13:21.067Z,57.70
2023-05-29T14:15:53.559Z,58.10
2023-05-29T14:18:20.761Z,58.40
2023-05-29T14:20:57.569Z,58.80
2023-05-29T14:23:27.040Z,59.10
2023-05-29T14:25:54.001Z,59.20
2023-05-29T14:28:21.410Z,59.10
2023-05-29T14:30:48.118Z,59.90
2023-05-29T14:33:15.245Z,60.70
2023-05-29T14:35:42.096Z,61.40
2023-05-29T14:38:08.874Z,61.80
2023-05-29T14:40:36.991Z,60.70
2023-05-29T14:43:04.779Z,60.50
2023-05-29T14:45:33.068Z,61.30
2023-05-29T14:48:02.020Z,61.40
2023-05-29T14:50:32.058Z,59.30
2023-05-29T14:52:58.825Z,60.30
2023-05-29T14:55:25.720Z,61.80
2023-05-29T14:57:52.600Z,62.40
2023-05-29T15:00:20.598Z,63.20
2023-05-29T15:02:48.680Z,62.40
2023-05-29T15:05:15.708Z,61.60
2023-05-29T15:07:42.490Z,61.50
2023-05-29T15:10:09.913Z,61.80
2023-05-29T15:12:36.692Z,61.50
2023-05-29T15:15:05.059Z,63.20
2023-05-29T15:17:44.010Z,63.40
2023-05-29T15:20:11.651Z,64.10
2023-05-29T15:22:38.800Z,64.70
2023-05-29T15:25:09.038Z,65.30
2023-05-29T15:27:35.882Z,64.00
2023-05-29T15:30:16.368Z,64.40
2023-05-29T15:32:44.819Z,64.50
2023-05-29T15:35:13.116Z,64.40
2023-05-29T15:37:42.274Z,63.90
2023-05-29T15:40:13.884Z,63.90
2023-05-29T15:42:45.409Z,65.40
2023-05-29T15:45:12.677Z,65.00
2023-05-29T15:47:39.489Z,64.70
2023-05-29T15:50:06.754Z,66.50
2023-05-29T15:52:46.459Z,67.50
2023-05-29T15:58:24.237Z,66.20
2023-05-29T16:00:51.324Z,66.50
2023-05-29T16:03:18.088Z,68.10
2023-05-29T16:05:45.277Z,69.20
2023-05-29T16:08:12.168Z,69.60
2023-05-29T16:10:42.329Z,69.60
2023-05-29T16:13:09.299Z,70.00
2023-05-29T16:15:36.565Z,69.70
2023-05-29T16:18:03.528Z,70.80
2023-05-29T16:20:32.377Z,71.80
2023-05-29T16:22:59.497Z,73.40
2023-05-29T16:25:26.671Z,74.00
2023-05-29T16:27:56.870Z,74.10
2023-05-29T16:30:26.934Z,74.90
2023-05-29T16:32:54.271Z,76.30
2023-05-29T16:35:23.886Z,76.40
2023-05-29T16:37:50.744Z,77.90
2023-05-29T16:40:21.722Z,79.00
2023-05-29T16:42:57.878Z,80.40
2023-05-29T16:45:26.186Z,82.50
2023-05-29T16:47:53.701Z,83.10
2023-05-29T16:50:27.050Z,84.70
2023-05-29T16:52:54.727Z,85.60
2023-05-29T16:55:23.714Z,86.70
2023-05-29T16:57:50.667Z,87.40
2023-05-29T17:00:18.436Z,88.60
2023-05-29T17:02:45.671Z,90.30
2023-05-29T17:05:14.968Z,90.90
2023-05-29T17:07:42.116Z,91.40
2023-05-29T17:10:16.182Z,91.50
2023-05-29T17:12:44.895Z,91.60
2023-05-29T17:15:13.610Z,92.20
2023-05-29T17:17:41.663Z,92.80
2023-05-29T17:20:11.901Z,93.30
2023-05-29T17:22:46.717Z,94.20
2023-05-29T17:25:13.456Z,95.30
2023-05-29T17:27:43.125Z,96.00
2023-05-29T17:30:10.582Z,96.50
2023-05-29T17:32:39.820Z,97.40
2023-05-29T17:35:08.999Z,97.90
2023-05-29T17:37:38.214Z,98.30
2023-05-29T17:40:08.899Z,99.00
2023-05-29T17:42:35.834Z,99.60
2023-05-29T17:45:04.780Z,99.80
2023-05-29T17:47:31.583Z,99.90
2023-05-29T17:50:02.813Z,99.90
2023-05-29T17:52:30.864Z,99.90
2023-05-29T17:55:00.506Z,99.90
2023-05-29T17:57:28.782Z,99.90
2023-05-29T17:59:56.283Z,99.90
2023-05-29T18:02:23.330Z,99.90
2023-05-29T18:04:52.626Z,99.90
2023-05-29T18:07:19.440Z,99.90
2023-05-29T18:09:46.701Z,99.90
2023-05-29T18:12:16.393Z,99.90
2023-05-29T18:14:43.534Z,99.90
2023-05-29T18:17:11.162Z,99.90
2023-05-29T18:19:38.340Z,99.90
2023-05-29T18:22:05.762Z,99.90
2023-05-29T18:24:33.584Z,99.90
2023-05-29T18:27:00.354Z,99.90
2023-05-29T18:29:33.229Z,99.90
2023-05-29T18:32:01.886Z,99.90
2023-05-29T18:34:28.807Z,99.90
2023-05-29T18:36:56.416Z,99.90
2023-05-29T18:39:23.315Z,99.90
2023-05-29T18:41:50.089Z,99.90
2023-05-29T18:44:17.351Z,99.90
2023-05-29T18:46:44.170Z,99.90
2023-05-29T18:49:13.799Z,99.90
2023-05-29T18:51:40.627Z,99.90
2023-05-29T18:54:08.987Z,99.90
2023-05-29T18:56:35.808Z,99.90
2023-05-29T18:59:05.312Z,99.90
2023-05-29T19:01:33.099Z,99.90
2023-05-29T19:04:02.044Z,99.90
2023-05-29T19:06:32.749Z,99.90
2023-05-29T19:09:01.103Z,99.90
2023-05-29T19:11:28.336Z,99.90
2023-05-29T19:13:55.066Z,99.90
2023-05-29T19:16:22.529Z,99.90
2023-05-29T19:18:49.909Z,99.90
2023-05-29T19:21:17.096Z,99.90
2023-05-29T19:23:44.336Z,99.90
2023-05-29T19:26:11.484Z,99.90
2023-05-29T19:28:38.340Z,99.90
2023-05-29T19:31:05.755Z,99.90
2023-05-29T19:33:32.607Z,99.90
2023-05-29T19:35:59.803Z,99.90
2023-05-29T19:38:26.537Z,99.90
2023-05-29T19:40:53.676Z,99.90
2023-05-29T19:43:20.715Z,99.90
2023-05-29T19:45:58.300Z,99.90
2023-05-29T19:48:36.559Z,99.90
2023-05-29T19:51:06.644Z,99.90
2023-05-29T19:53:34.491Z,99.90
2023-05-29T19:56:01.590Z,99.90
2023-05-29T19:58:31.093Z,99.90
2023-05-29T20:00:59.256Z,99.90
2023-05-29T20:03:27.247Z,99.90
2023-05-29T20:05:55.914Z,99.90
2023-05-29T20:08:23.073Z,99.90
2023-05-29T20:10:58.041Z,99.90
2023-05-29T20:13:28.242Z,99.90
2023-05-29T20:15:55.612Z,99.90
2023-05-29T20:18:24.435Z,99.90
2023-05-29T20:20:52.017Z,99.90
2023-05-29T20:23:20.629Z,99.90
2023-05-29T20:25:48.611Z,99.90
2023-05-29T20:28:15.385Z,99.90
2023-05-29T20:30:42.433Z,99.90
2023-05-29T20:33:09.658Z,99.90
2023-05-29T20:35:37.220Z,99.90
2023-05-29T20:38:04.445Z,99.90
2023-05-29T20:40:31.547Z,99.90
2023-05-29T20:42:58.620Z,99.90
2023-05-29T20:45:25.754Z,99.90
2023-05-29T20:47:53.964Z,99.90
2023-05-29T20:50:24.050Z,99.90
2023-05-29T20:52:51.014Z,99.90
2023-05-29T20:55:18.070Z,99.90
2023-05-29T20:57:45.037Z,99.90
2023-05-29T21:00:13.713Z,99.90
2023-05-29T21:02:41.380Z,99.90
2023-05-29T21:05:09.810Z,99.90
2023-05-29T21:07:37.592Z,99.90
2023-05-29T21:10:09.186Z,99.90
2023-05-29T21:12:36.670Z,99.90
2023-05-29T21:15:04.909Z,99.90
2023-05-29T21:17:32.303Z,99.90
2023-05-29T21:20:02.408Z,99.90
2023-05-29T21:22:30.912Z,99.90
2023-05-29T21:24:58.606Z,99.90
2023-05-29T21:27:25.763Z,99.90
2023-05-29T21:29:52.752Z,99.90
2023-05-29T21:32:20.610Z,99.90
2023-05-29T21:34:48.109Z,99.90
2023-05-29T21:37:15.389Z,99.90
2023-05-29T21:39:43.024Z,99.90
2023-05-29T21:42:11.137Z,99.90
2023-05-29T21:44:38.264Z,99.90
2023-05-29T21:47:05.811Z,99.90
2023-05-29T21:49:32.539Z,99.90
2023-05-29T21:51:59.718Z,99.90
2023-05-29T21:54:26.821Z,99.90
2023-05-29T21:56:53.633Z,99.90
2023-05-29T21:59:20.774Z,99.90
2023-05-29T22:01:47.678Z,99.90
2023-05-29T22:04:14.938Z,99.90
2023-05-29T22:06:44.192Z,99.90
2023-05-29T22:09:12.667Z,99.90
2023-05-29T22:11:40.031Z,99.90
2023-05-29T22:14:08.400Z,99.90
2023-05-29T22:16:36.174Z,99.90
2023-05-29T22:19:06.637Z,99.90
2023-05-29T22:21:34.546Z,99.90
2023-05-29T22:24:03.324Z,99.90
2023-05-29T22:26:31.447Z,99.90
2023-05-29T22:28:58.421Z,99.90
2023-05-29T22:31:25.842Z,99.90
2023-05-29T22:33:53.136Z,99.90
2023-05-29T22:36:21.939Z,99.90
2023-05-29T22:38:49.303Z,99.90
2023-05-29T22:41:16.166Z,99.90
2023-05-29T22:43:43.623Z,99.90
2023-05-29T22:46:10.472Z,99.90
2023-05-29T22:48:39.291Z,99.90
2023-05-29T22:51:09.529Z,99.90
2023-05-29T22:53:36.645Z,99.90
2023-05-29T22:56:04.029Z,99.90
2023-05-29T22:58:31.117Z,99.90
2023-05-29T23:00:58.058Z,99.90
2023-05-29T23:03:26.197Z,99.90
2023-05-29T23:05:53.438Z,99.90
2023-05-29T23:08:20.345Z,99.90
2023-05-29T23:10:48.090Z,99.90
2023-05-29T23:13:14.832Z,99.90
2023-05-29T23:15:45.286Z,99.90
2023-05-29T23:18:12.366Z,99.90
2023-05-29T23:20:39.631Z,99.90
2023-05-29T23:23:06.930Z,99.90
2023-05-29T23:25:34.731Z,99.90
2023-05-29T23:28:02.093Z,99.90
2023-05-29T23:30:29.467Z,99.90
2023-05-29T23:32:56.277Z,99.90
2023-05-29T23:35:23.238Z,99.90
2023-05-29T23:37:50.379Z,99.90
2023-05-29T23:40:17.428Z,99.90
2023-05-29T23:42:45.305Z,99.90
2023-05-29T23:45:12.726Z,99.90
2023-05-29T23:47:40.113Z,99.90
2023-05-29T23:50:07.511Z,99.90
2023-05-29T23:52:34.598Z,99.90
2023-05-29T23:55:02.052Z,99.90
2023-05-29T23:57:28.907Z,99.90
2023-05-29T23:59:56.937Z,99.90
